Time;durP1;ratioP1;P1;durP2;ratioP2;P2;SDS_P1;SDS_P2;PMS_P1;PMS_P2;Temp;Humidity;BMP_temperature;BMP_pressure;BME280_temperature;BME280_humidity;BME280_pressure;Samples;Min_cycle;Max_cycle;Signal;HPM_P1;HPM_P2
2023/02/28 00:01:11;;;;;;;7.38;6.18;;;;;;;;;;10340173;28;20075;-64
2023/02/28 00:06:10;;;;;;;7.60;6.85;;;;;;;;;;10349522;28;20091;-62
2023/02/28 00:11:09;;;;;;;7.75;6.95;;;;;;;;;;10340479;28;20079;-63
2023/02/28 00:16:10;;;;;;;8.10;7.30;;;;;;;;;;10339587;28;20079;-63
2023/02/28 00:21:09;;;;;;;8.80;7.93;;;;;;;;;;10341468;28;20064;-63
2023/02/28 00:26:07;;;;;;;8.10;6.82;;;;;;;;;;10339083;28;20044;-63
2023/02/28 00:31:05;;;;;;;7.25;6.55;;;;;;;;;;10336708;28;20178;-62
2023/02/28 00:36:08;;;;;;;7.95;7.15;;;;;;;;;;10337584;28;20456;-63
2023/02/28 00:41:07;;;;;;;7.82;7.13;;;;;;;;;;10341366;28;20084;-62
2023/02/28 00:46:05;;;;;;;7.47;6.78;;;;;;;;;;10340923;28;20076;-62
2023/02/28 00:51:03;;;;;;;8.40;6.85;;;;;;;;;;10332806;28;20074;-61
2023/02/28 00:56:03;;;;;;;7.50;6.78;;;;;;;;;;10339413;28;20078;-63
2023/02/28 01:01:02;;;;;;;9.32;8.38;;;;;;;;;;10340033;28;20493;-62
2023/02/28 01:06:01;;;;;;;8.25;6.97;;;;;;;;;;10347977;28;20072;-63
2023/02/28 01:11:07;;;;;;;8.90;7.38;;;;;;;;;;10336026;28;20078;-62
2023/02/28 01:16:07;;;;;;;7.40;6.70;;;;;;;;;;10339415;28;20072;-63
2023/02/28 01:21:06;;;;;;;8.25;7.45;;;;;;;;;;10338275;28;20469;-62
2023/02/28 01:26:05;;;;;;;8.38;6.88;;;;;;;;;;10341718;28;20070;-62
2023/02/28 01:31:04;;;;;;;7.80;7.00;;;;;;;;;;10339926;28;20100;-62
2023/02/28 01:36:04;;;;;;;6.78;6.18;;;;;;;;;;10332139;28;20075;-63
2023/02/28 01:41:03;;;;;;;8.07;7.38;;;;;;;;;;10335038;28;20088;-62
2023/02/28 01:46:01;;;;;;;7.70;7.00;;;;;;;;;;10334370;28;20076;-63
2023/02/28 01:51:01;;;;;;;7.63;6.93;;;;;;;;;;10340881;28;20521;-62
2023/02/28 01:56:00;;;;;;;8.32;7.53;;;;;;;;;;10340602;28;20087;-63
2023/02/28 02:00:59;;;;;;;8.48;7.65;;;;;;;;;;10353572;28;20078;-63
2023/02/28 02:05:57;;;;;;;8.48;7.68;;;;;;;;;;10348878;28;20121;-63
2023/02/28 02:10:57;;;;;;;10.43;9.07;;;;;;;;;;10357705;27;20091;-63
2023/02/28 02:16:01;;;;;;;9.40;8.50;;;;;;;;;;10346400;28;20085;-62
2023/02/28 02:21:14;;;;;;;10.43;8.77;;;;;;;;;;10343149;28;20068;-63
2023/02/28 02:26:26;;;;;;;9.05;8.15;;;;;;;;;;10349049;28;20075;-63
2023/02/28 02:31:40;;;;;;;9.20;8.30;;;;;;;;;;10345737;28;20103;-63
2023/02/28 02:36:42;;;;;;;9.80;8.88;;;;;;;;;;10342234;28;20076;-62
2023/02/28 02:41:42;;;;;;;9.45;8.52;;;;;;;;;;10345096;28;20102;-62
2023/02/28 02:46:42;;;;;;;8.93;8.13;;;;;;;;;;10347883;28;20072;-63
2023/02/28 02:51:42;;;;;;;8.18;7.47;;;;;;;;;;10343855;28;20071;-62
2023/02/28 02:56:43;;;;;;;9.50;8.68;;;;;;;;;;10343325;28;20076;-63
2023/02/28 03:01:42;;;;;;;9.23;8.32;;;;;;;;;;10345296;28;20067;-63
2023/02/28 03:06:40;;;;;;;9.38;8.52;;;;;;;;;;10344239;28;20064;-63
2023/02/28 03:11:42;;;;;;;9.40;8.52;;;;;;;;;;10340356;28;20092;-63
2023/02/28 03:16:50;;;;;;;10.05;9.15;;;;;;;;;;10332271;28;20083;-63
2023/02/28 03:21:52;;;;;;;9.70;8.82;;;;;;;;;;10342110;28;20080;-63
2023/02/28 03:26:55;;;;;;;13.50;12.25;;;;;;;;;;10344076;28;20442;-63
2023/02/28 03:31:55;;;;;;;11.02;9.93;;;;;;;;;;10342416;28;20074;-63
2023/02/28 03:36:54;;;;;;;11.65;10.55;;;;;;;;;;10343819;28;20076;-62
2023/02/28 03:41:58;;;;;;;10.60;9.57;;;;;;;;;;10343892;28;20078;-64
2023/02/28 03:46:59;;;;;;;15.13;13.63;;;;;;;;;;10343682;28;20075;-63
2023/02/28 03:51:59;;;;;;;11.70;10.60;;;;;;;;;;10343588;28;20506;-63
2023/02/28 03:57:01;;;;;;;12.43;11.18;;;;;;;;;;10339471;28;20114;-63
2023/02/28 04:01:59;;;;;;;12.73;11.43;;;;;;;;;;10344147;28;20068;-63
2023/02/28 04:07:02;;;;;;;14.82;13.32;;;;;;;;;;10341661;28;20086;-63
2023/02/28 04:12:02;;;;;;;12.20;11.00;;;;;;;;;;10340359;28;20063;-63
2023/02/28 04:17:00;;;;;;;14.80;12.57;;;;;;;;;;10341976;28;20074;-63
2023/02/28 04:21:58;;;;;;;15.90;14.20;;;;;;;;;;10340458;28;20079;-62
2023/02/28 04:26:57;;;;;;;15.48;13.93;;;;;;;;;;10341271;28;20068;-63
2023/02/28 04:31:58;;;;;;;15.65;14.15;;;;;;;;;;10337123;28;20079;-63
2023/02/28 04:36:57;;;;;;;16.40;14.68;;;;;;;;;;10342775;28;20087;-63
2023/02/28 04:42:11;;;;;;;17.27;15.45;;;;;;;;;;10340190;28;20122;-63
2023/02/28 04:47:11;;;;;;;15.93;14.30;;;;;;;;;;10338767;28;20071;-63
2023/02/28 04:52:10;;;;;;;14.88;13.38;;;;;;;;;;10339224;28;20071;-62
2023/02/28 04:57:08;;;;;;;15.32;13.75;;;;;;;;;;10335015;28;20608;-63
2023/02/28 05:02:07;;;;;;;16.17;14.48;;;;;;;;;;10339665;28;20076;-63
2023/02/28 05:07:06;;;;;;;16.55;14.75;;;;;;;;;;10339736;28;20495;-64
2023/02/28 05:12:05;;;;;;;15.93;14.20;;;;;;;;;;10346094;28;20079;-63
2023/02/28 05:17:03;;;;;;;17.88;15.32;;;;;;;;;;10338302;28;20059;-63
2023/02/28 05:22:02;;;;;;;18.95;16.30;;;;;;;;;;10341987;28;20072;-64
2023/02/28 05:27:01;;;;;;;20.70;16.27;;;;;;;;;;10339915;28;20081;-65
2023/02/28 05:32:00;;;;;;;19.85;17.85;;;;;;;;;;10335469;28;20076;-64
2023/02/28 05:36:58;;;;;;;18.17;15.75;;;;;;;;;;10337205;28;20075;-64
2023/02/28 05:41:56;;;;;;;17.13;15.40;;;;;;;;;;10340229;28;20151;-64
2023/02/28 05:46:56;;;;;;;18.27;16.35;;;;;;;;;;10340947;28;20078;-63
2023/02/28 05:51:54;;;;;;;19.92;17.77;;;;;;;;;;10346148;28;20106;-63
2023/02/28 05:56:52;;;;;;;18.95;16.17;;;;;;;;;;10340936;28;20083;-63
2023/02/28 06:01:52;;;;;;;19.65;17.45;;;;;;;;;;10331469;28;20052;-63
2023/02/28 06:06:52;;;;;;;19.55;17.42;;;;;;;;;;10340499;28;20520;-63
2023/02/28 06:11:50;;;;;;;20.38;18.17;;;;;;;;;;10340062;28;20113;-64
2023/02/28 06:16:48;;;;;;;19.17;16.40;;;;;;;;;;10340645;28;20153;-64
2023/02/28 06:21:50;;;;;;;20.15;17.55;;;;;;;;;;10347999;28;20055;-64
2023/02/28 06:26:50;;;;;;;20.77;18.50;;;;;;;;;;10328669;28;20075;-64
2023/02/28 06:31:48;;;;;;;17.98;15.73;;;;;;;;;;10344636;28;20477;-64
2023/02/28 06:36:46;;;;;;;19.95;17.80;;;;;;;;;;10344247;28;20087;-64
2023/02/28 06:41:45;;;;;;;15.90;14.30;;;;;;;;;;10342914;28;20087;-64
2023/02/28 06:46:54;;;;;;;18.77;16.52;;;;;;;;;;10347632;28;20535;-64
2023/02/28 06:51:52;;;;;;;17.80;15.45;;;;;;;;;;10349668;28;20071;-64
2023/02/28 06:56:50;;;;;;;19.05;16.77;;;;;;;;;;10345643;28;20087;-64
2023/02/28 07:01:48;;;;;;;23.67;21.15;;;;;;;;;;10349867;28;20072;-63
2023/02/28 07:06:48;;;;;;;22.45;20.08;;;;;;;;;;10347459;28;20068;-64
2023/02/28 07:11:46;;;;;;;21.08;18.80;;;;;;;;;;10347272;28;20517;-63
2023/02/28 07:16:45;;;;;;;23.77;19.85;;;;;;;;;;10353790;28;20071;-63
2023/02/28 07:21:43;;;;;;;21.13;18.33;;;;;;;;;;10348749;28;20082;-64
2023/02/28 07:26:43;;;;;;;24.10;19.38;;;;;;;;;;10350016;28;20526;-64
2023/02/28 07:31:41;;;;;;;20.67;18.48;;;;;;;;;;10349179;28;20083;-63
2023/02/28 07:36:39;;;;;;;19.75;17.65;;;;;;;;;;10338545;28;20071;-63
2023/02/28 07:41:43;;;;;;;22.75;18.35;;;;;;;;;;10335942;28;20084;-63
2023/02/28 07:46:42;;;;;;;26.85;20.23;;;;;;;;;;10345434;28;20059;-63
2023/02/28 07:51:41;;;;;;;21.15;18.83;;;;;;;;;;10338089;28;20090;-62
2023/02/28 07:56:39;;;;;;;24.27;19.67;;;;;;;;;;10336040;28;20075;-63
2023/02/28 08:01:37;;;;;;;22.88;18.98;;;;;;;;;;10348643;27;20490;-64
2023/02/28 08:06:37;;;;;;;21.65;19.10;;;;;;;;;;10339267;28;20086;-62
2023/02/28 08:11:36;;;;;;;24.65;20.77;;;;;;;;;;10348597;28;20524;-63
2023/02/28 08:16:34;;;;;;;21.52;19.20;;;;;;;;;;10339354;28;20064;-62
2023/02/28 08:21:32;;;;;;;22.63;19.95;;;;;;;;;;10340122;28;20090;-63
2023/02/28 08:26:32;;;;;;;23.73;20.02;;;;;;;;;;10342030;28;20137;-64
2023/02/28 08:31:30;;;;;;;22.92;18.65;;;;;;;;;;10343840;28;20080;-64
2023/02/28 08:36:29;;;;;;;30.58;20.52;;;;;;;;;;10343248;28;20073;-62
2023/02/28 08:41:27;;;;;;;23.50;19.23;;;;;;;;;;10340301;28;20082;-64
2023/02/28 08:46:28;;;;;;;37.58;24.35;;;;;;;;;;10336986;28;20068;-63
2023/02/28 08:51:26;;;;;;;22.92;19.50;;;;;;;;;;10344163;28;20075;-64
2023/02/28 08:56:26;;;;;;;23.60;21.10;;;;;;;;;;10340478;28;20064;-64
2023/02/28 09:01:25;;;;;;;20.25;18.25;;;;;;;;;;10336716;28;20064;-62
2023/02/28 09:06:25;;;;;;;25.70;21.60;;;;;;;;;;10334535;28;20072;-63
2023/02/28 09:11:24;;;;;;;22.70;20.30;;;;;;;;;;10339382;28;20072;-64
2023/02/28 09:16:22;;;;;;;20.60;18.40;;;;;;;;;;10334176;28;20071;-63
2023/02/28 09:21:20;;;;;;;21.45;17.85;;;;;;;;;;10326577;28;20072;-64
2023/02/28 09:26:22;;;;;;;23.52;20.13;;;;;;;;;;10336646;28;20063;-63
2023/02/28 09:31:21;;;;;;;19.48;17.48;;;;;;;;;;10338461;28;20076;-63
2023/02/28 09:36:20;;;;;;;24.67;20.40;;;;;;;;;;10334646;28;20080;-64
2023/02/28 09:41:22;;;;;;;22.42;20.02;;;;;;;;;;10330343;28;20485;-63
2023/02/28 09:46:29;;;;;;;23.60;19.23;;;;;;;;;;10341887;28;20082;-64
2023/02/28 09:51:34;;;;;;;20.55;18.10;;;;;;;;;;10340761;28;20076;-64
2023/02/28 09:56:39;;;;;;;18.73;16.80;;;;;;;;;;10335667;28;20071;-62
2023/02/28 10:01:40;;;;;;;22.35;19.70;;;;;;;;;;10336957;28;20088;-62
2023/02/28 10:06:42;;;;;;;22.50;19.27;;;;;;;;;;10336480;28;20079;-63
2023/02/28 10:11:42;;;;;;;23.05;20.65;;;;;;;;;;10331696;28;20079;-63
2023/02/28 10:16:46;;;;;;;22.67;18.65;;;;;;;;;;10335715;28;20080;-63
2023/02/28 10:21:47;;;;;;;23.60;21.02;;;;;;;;;;10347883;28;20467;-63
2023/02/28 10:26:48;;;;;;;24.73;21.08;;;;;;;;;;10345706;28;20084;-63
2023/02/28 10:31:46;;;;;;;21.83;18.30;;;;;;;;;;10349279;28;20082;-63
2023/02/28 10:36:45;;;;;;;27.52;22.25;;;;;;;;;;10347925;28;20086;-64
2023/02/28 10:41:43;;;;;;;27.75;21.98;;;;;;;;;;10337816;28;20076;-64
2023/02/28 10:46:43;;;;;;;31.17;22.98;;;;;;;;;;10339650;28;20083;-63
2023/02/28 10:51:42;;;;;;;24.98;20.80;;;;;;;;;;10348773;28;20498;-63
2023/02/28 10:56:40;;;;;;;28.30;22.95;;;;;;;;;;10346914;28;20071;-63
2023/02/28 11:01:40;;;;;;;37.70;26.45;;;;;;;;;;10344481;28;20506;-63
2023/02/28 11:06:39;;;;;;;35.13;26.67;;;;;;;;;;10344125;28;20083;-63
2023/02/28 11:11:43;;;;;;;41.65;30.83;;;;;;;;;;10338640;28;20525;-63
2023/02/28 11:16:42;;;;;;;28.67;23.67;;;;;;;;;;10346482;28;20087;-63
2023/02/28 11:21:54;;;;;;;26.75;20.90;;;;;;;;;;10355478;28;20067;-63
2023/02/28 11:26:52;;;;;;;25.38;20.92;;;;;;;;;;10345196;28;20079;-63
2023/02/28 11:32:04;;;;;;;34.33;25.67;;;;;;;;;;10341972;28;20075;-64
2023/02/28 11:37:06;;;;;;;41.60;28.77;;;;;;;;;;10350482;28;20494;-62
2023/02/28 11:42:17;;;;;;;30.20;22.98;;;;;;;;;;10338739;28;20086;-62
2023/02/28 11:47:18;;;;;;;27.90;21.77;;;;;;;;;;10341537;28;20064;-62
2023/02/28 11:52:21;;;;;;;26.52;21.77;;;;;;;;;;10342728;28;20593;-62
2023/02/28 11:57:30;;;;;;;33.35;22.90;;;;;;;;;;10335786;28;20076;-62
2023/02/28 12:02:30;;;;;;;28.92;21.67;;;;;;;;;;10336711;28;20086;-63
2023/02/28 12:07:34;;;;;;;34.92;25.23;;;;;;;;;;10342455;28;20071;-63
2023/02/28 12:12:40;;;;;;;30.67;23.97;;;;;;;;;;10346232;28;20344;-63
2023/02/28 12:17:44;;;;;;;24.58;21.88;;;;;;;;;;10345411;28;20071;-63
2023/02/28 13:01:06;;;;;;;33.22;26.55;;;;;;;;;;10446242;27;20772;-59
2023/02/28 13:06:11;;;;;;;37.70;27.98;;;;;;;;;;10444205;27;20073;-63
2023/02/28 13:11:09;;;;;;;;;;;;;;;;;;10446857;27;20074;-63
2023/02/28 13:16:19;;;;;;;42.40;34.40;;;;;;;;;;10447168;27;20402;-63
2023/02/28 13:21:23;;;;;;;30.38;26.17;;;;;;;;;;10444812;27;20067;-62
2023/02/28 13:26:21;;;;;;;29.40;23.70;;;;;;;;;;10448732;27;20141;-59
2023/02/28 13:31:21;;;;;;;29.70;23.95;;;;;;;;;;10444930;27;20066;-58
2023/02/28 13:36:31;;;;;;;24.27;21.30;;;;;;;;;;10445988;27;20082;-59
2023/02/28 13:41:42;;;;;;;36.88;29.75;;;;;;;;;;10440192;27;20077;-59
2023/02/28 13:47:00;;;;;;;28.13;23.05;;;;;;;;;;10441437;27;20511;-58
2023/02/28 13:52:13;;;;;;;32.50;28.65;;;;;;;;;;10443627;27;20476;-59
2023/02/28 13:57:24;;;;;;;25.15;22.60;;;;;;;;;;10444535;27;20090;-60
2023/02/28 14:02:35;;;;;;;24.50;20.83;;;;;;;;;;10416889;27;20508;-60
2023/02/28 14:07:40;;;;;;;28.20;23.05;;;;;;;;;;10403200;27;20063;-58
2023/02/28 14:12:54;;;;;;;41.05;31.05;;;;;;;;;;10412766;27;20071;-59
2023/02/28 14:17:52;;;;;;;31.88;26.88;;;;;;;;;;10401959;27;20074;-57
2023/02/28 14:22:56;;;;;;;23.98;21.30;;;;;;;;;;10402876;27;20059;-61
2023/02/28 14:27:58;;;;;;;24.17;20.65;;;;;;;;;;10404778;27;20060;-62
2023/02/28 14:33:02;;;;;;;27.85;24.33;;;;;;;;;;10405250;27;20732;-62
2023/02/28 14:38:06;;;;;;;47.65;36.75;;;;;;;;;;10409940;27;20067;-63
2023/02/28 14:43:06;;;;;;;83.35;56.83;;;;;;;;;;10407315;27;20064;-63
2023/02/28 14:48:05;;;;;;;32.95;29.45;;;;;;;;;;10411271;27;20067;-62
2023/02/28 14:53:05;;;;;;;31.40;26.73;;;;;;;;;;10401533;27;20059;-63
2023/02/28 14:58:06;;;;;;;29.33;26.17;;;;;;;;;;10403666;27;20075;-64
2023/02/28 15:03:18;;;;;;;39.75;35.42;;;;;;;;;;10403526;27;20062;-62
2023/02/28 15:08:19;;;;;;;34.13;30.58;;;;;;;;;;10409278;27;20063;-63
2023/02/28 15:13:18;;;;;;;33.33;27.52;;;;;;;;;;10408255;27;20077;-63
2023/02/28 15:18:18;;;;;;;34.90;30.30;;;;;;;;;;10409617;27;20066;-63
2023/02/28 15:23:19;;;;;;;26.92;22.27;;;;;;;;;;10408315;27;20059;-63
2023/02/28 15:28:19;;;;;;;23.35;20.85;;;;;;;;;;10413241;27;20067;-63
2023/02/28 15:33:22;;;;;;;33.67;30.05;;;;;;;;;;10413537;27;20071;-62
2023/02/28 15:38:24;;;;;;;31.70;26.77;;;;;;;;;;10415055;27;20079;-63
2023/02/28 15:43:27;;;;;;;27.27;22.40;;;;;;;;;;10415199;27;20609;-63
2023/02/28 15:48:26;;;;;;;31.15;23.48;;;;;;;;;;10412871;27;20071;-63
2023/02/28 15:53:27;;;;;;;29.10;24.13;;;;;;;;;;10413025;27;20078;-63
2023/02/28 15:58:25;;;;;;;32.95;27.45;;;;;;;;;;10412104;27;20090;-63
2023/02/28 16:03:24;;;;;;;36.53;31.90;;;;;;;;;;10417817;27;20078;-62
2023/02/28 16:08:22;;;;;;;46.63;38.65;;;;;;;;;;10402942;27;20504;-63
2023/02/28 16:13:21;;;;;;;48.40;41.10;;;;;;;;;;10409514;27;20071;-62
2023/02/28 16:18:20;;;;;;;39.95;35.47;;;;;;;;;;10408005;27;20110;-62
2023/02/28 16:23:18;;;;;;;87.68;67.97;;;;;;;;;;10405299;27;20071;-61
2023/02/28 16:28:18;;;;;;;41.20;36.03;;;;;;;;;;10409865;27;20067;-63
2023/02/28 16:33:18;;;;;;;34.13;30.38;;;;;;;;;;10412632;27;20073;-61
2023/02/28 16:38:16;;;;;;;40.80;33.15;;;;;;;;;;10411587;27;20066;-62
2023/02/28 16:43:17;;;;;;;64.35;44.33;;;;;;;;;;10399562;27;20071;-62
2023/02/28 16:48:16;;;;;;;46.97;39.55;;;;;;;;;;10397221;28;20508;-62
2023/02/28 16:53:16;;;;;;;40.78;34.28;;;;;;;;;;10398419;28;20078;-62
2023/02/28 16:58:15;;;;;;;40.60;35.10;;;;;;;;;;10404140;28;20610;-63
2023/02/28 17:03:20;;;;;;;47.85;37.58;;;;;;;;;;10399349;27;20063;-62
2023/02/28 17:08:31;;;;;;;41.35;31.92;;;;;;;;;;10411121;28;20082;-63
2023/02/28 17:13:30;;;;;;;38.47;31.35;;;;;;;;;;10399156;28;20071;-63
2023/02/28 17:18:33;;;;;;;40.00;33.00;;;;;;;;;;10404682;28;20133;-62
2023/02/28 17:23:33;;;;;;;39.10;31.77;;;;;;;;;;10405496;28;20500;-62
2023/02/28 17:28:31;;;;;;;35.03;28.73;;;;;;;;;;10398032;28;20063;-62
2023/02/28 17:33:29;;;;;;;38.35;31.83;;;;;;;;;;10404552;27;20074;-62
2023/02/28 17:38:27;;;;;;;42.42;34.92;;;;;;;;;;10414010;27;20063;-61
2023/02/28 17:43:28;;;;;;;29.35;25.15;;;;;;;;;;10405936;27;20083;-62
2023/02/28 17:48:26;;;;;;;32.40;26.55;;;;;;;;;;10420721;27;20043;-61
2023/02/28 17:53:26;;;;;;;30.00;25.67;;;;;;;;;;10411860;27;20063;-62
2023/02/28 17:58:25;;;;;;;32.90;28.00;;;;;;;;;;10410457;27;20083;-62
2023/02/28 18:03:25;;;;;;;33.75;27.85;;;;;;;;;;10412607;27;20071;-62
2023/02/28 18:08:24;;;;;;;32.70;27.88;;;;;;;;;;10406178;27;20070;-62
2023/02/28 18:13:22;;;;;;;33.45;26.17;;;;;;;;;;10416464;27;20071;-63
2023/02/28 18:18:20;;;;;;;30.38;27.00;;;;;;;;;;10401549;27;20479;-63
2023/02/28 18:23:20;;;;;;;51.65;38.72;;;;;;;;;;10405141;27;20066;-63
2023/02/28 18:28:18;;;;;;;67.95;44.78;;;;;;;;;;10411445;27;20078;-63
2023/02/28 18:33:17;;;;;;;42.42;32.38;;;;;;;;;;10407257;27;20059;-63
2023/02/28 18:38:16;;;;;;;51.08;37.42;;;;;;;;;;10401245;27;20063;-62
2023/02/28 18:43:15;;;;;;;42.40;29.25;;;;;;;;;;10401840;27;20083;-62
2023/02/28 18:48:14;;;;;;;46.15;35.25;;;;;;;;;;10399372;27;20063;-62
2023/02/28 18:53:12;;;;;;;58.33;42.72;;;;;;;;;;10412302;27;20067;-62
2023/02/28 18:58:11;;;;;;;47.72;36.50;;;;;;;;;;10409460;27;20366;-63
2023/02/28 19:03:12;;;;;;;158.15;90.00;;;;;;;;;;10401288;27;20082;-63
2023/02/28 19:08:10;;;;;;;64.13;42.45;;;;;;;;;;10400572;27;20496;-62
2023/02/28 19:13:08;;;;;;;89.40;54.58;;;;;;;;;;10398447;27;20066;-63
2023/02/28 19:18:06;;;;;;;59.17;38.30;;;;;;;;;;10401369;27;20067;-62
2023/02/28 19:23:06;;;;;;;132.00;76.50;;;;;;;;;;10400930;27;20547;-63
2023/02/28 19:28:04;;;;;;;52.03;37.55;;;;;;;;;;10397879;27;20103;-63
2023/02/28 19:33:02;;;;;;;68.45;40.42;;;;;;;;;;10403183;27;20075;-62
2023/02/28 19:38:01;;;;;;;66.30;39.90;;;;;;;;;;10410296;27;20521;-62
2023/02/28 19:43:00;;;;;;;57.10;44.88;;;;;;;;;;10400266;27;20071;-62
2023/02/28 19:48:02;;;;;;;25.80;22.75;;;;;;;;;;10404600;27;20079;-62
2023/02/28 19:53:01;;;;;;;32.22;26.45;;;;;;;;;;10402759;27;20078;-62
2023/02/28 19:58:00;;;;;;;32.53;27.42;;;;;;;;;;10396843;27;20071;-62
2023/02/28 20:02:59;;;;;;;40.08;28.73;;;;;;;;;;10397619;27;20078;-63
2023/02/28 20:07:57;;;;;;;41.58;32.20;;;;;;;;;;10396351;27;20078;-63
2023/02/28 20:12:55;;;;;;;32.85;26.08;;;;;;;;;;10404504;27;20086;-61
2023/02/28 20:17:56;;;;;;;33.97;27.83;;;;;;;;;;10397767;27;20063;-62
2023/02/28 20:22:54;;;;;;;30.20;25.38;;;;;;;;;;10396095;27;20575;-63
2023/02/28 20:27:52;;;;;;;35.85;26.60;;;;;;;;;;10402842;27;20083;-63
2023/02/28 20:32:50;;;;;;;32.97;26.60;;;;;;;;;;10397897;27;20067;-62
2023/02/28 20:37:50;;;;;;;35.10;27.50;;;;;;;;;;10401957;27;20051;-63
2023/02/28 20:42:48;;;;;;;36.45;28.40;;;;;;;;;;10400533;27;20063;-62
2023/02/28 20:47:46;;;;;;;44.50;29.27;;;;;;;;;;10399677;28;20056;-63
2023/02/28 20:52:44;;;;;;;41.83;31.60;;;;;;;;;;10403014;28;20537;-63
2023/02/28 20:57:44;;;;;;;58.67;33.67;;;;;;;;;;10405752;27;20075;-63
2023/02/28 21:02:42;;;;;;;30.50;25.05;;;;;;;;;;10398284;28;20074;-63
2023/02/28 21:07:41;;;;;;;34.95;27.60;;;;;;;;;;10401604;27;20059;-63
2023/02/28 21:12:39;;;;;;;30.13;25.77;;;;;;;;;;10407889;27;20082;-62
2023/02/28 21:17:39;;;;;;;26.05;22.40;;;;;;;;;;10410404;27;20062;-62
2023/02/28 21:22:37;;;;;;;32.13;25.20;;;;;;;;;;10411680;27;20070;-63
2023/02/28 21:27:35;;;;;;;26.35;21.67;;;;;;;;;;10414982;27;20406;-62
2023/02/28 21:32:33;;;;;;;27.30;22.02;;;;;;;;;;10414864;27;20461;-62
2023/02/28 21:37:33;;;;;;;28.50;23.40;;;;;;;;;;10419853;27;20085;-63
2023/02/28 21:42:31;;;;;;;27.52;22.63;;;;;;;;;;10409398;27;20070;-63
2023/02/28 21:47:29;;;;;;;28.63;22.90;;;;;;;;;;10410489;27;20473;-63
2023/02/28 21:52:27;;;;;;;28.45;21.95;;;;;;;;;;10415282;27;20078;-62
2023/02/28 21:57:27;;;;;;;28.60;21.45;;;;;;;;;;10418861;27;20539;-62
2023/02/28 22:02:25;;;;;;;25.88;20.35;;;;;;;;;;10410140;27;20067;-62
2023/02/28 22:07:27;;;;;;;26.52;22.13;;;;;;;;;;10407763;27;20079;-62
2023/02/28 22:12:25;;;;;;;23.27;20.58;;;;;;;;;;10404792;27;20570;-63
2023/02/28 22:17:25;;;;;;;24.10;19.65;;;;;;;;;;10402244;27;20067;-63
2023/02/28 22:22:24;;;;;;;25.92;21.83;;;;;;;;;;10402282;27;20071;-63
2023/02/28 22:27:22;;;;;;;24.83;20.33;;;;;;;;;;10402147;27;20075;-63
2023/02/28 22:32:21;;;;;;;21.20;18.90;;;;;;;;;;10402774;27;20090;-63
2023/02/28 22:37:20;;;;;;;25.42;21.98;;;;;;;;;;10409864;27;20070;-63
2023/02/28 22:42:18;;;;;;;22.08;18.27;;;;;;;;;;10412004;27;20064;-62
2023/02/28 22:47:17;;;;;;;21.67;18.23;;;;;;;;;;10413006;27;20083;-62
2023/02/28 22:52:15;;;;;;;22.17;16.92;;;;;;;;;;10408999;27;20082;-63
2023/02/28 22:57:14;;;;;;;20.73;17.83;;;;;;;;;;10410254;27;20109;-63
2023/02/28 23:02:13;;;;;;;19.45;17.45;;;;;;;;;;10408831;27;20079;-62
2023/02/28 23:07:11;;;;;;;19.38;17.38;;;;;;;;;;10400204;27;20493;-62
2023/02/28 23:12:09;;;;;;;20.30;18.17;;;;;;;;;;10411998;27;20087;-61
2023/02/28 23:17:09;;;;;;;22.75;17.73;;;;;;;;;;10412420;27;20086;-62
2023/02/28 23:22:07;;;;;;;19.38;15.45;;;;;;;;;;10412480;27;20474;-62
2023/02/28 23:27:05;;;;;;;18.88;16.33;;;;;;;;;;10413153;27;20102;-62
2023/02/28 23:32:04;;;;;;;18.33;16.40;;;;;;;;;;10415025;27;20086;-62
2023/02/28 23:37:04;;;;;;;22.38;17.70;;;;;;;;;;10418016;27;20074;-62
2023/02/28 23:42:02;;;;;;;22.60;18.33;;;;;;;;;;10412471;27;20074;-63
2023/02/28 23:47:00;;;;;;;19.50;17.08;;;;;;;;;;10412685;27;20473;-62
2023/02/28 23:51:58;;;;;;;21.38;18.05;;;;;;;;;;10414868;27;20075;-62
2023/02/28 23:56:58;;;;;;;20.58;17.40;;;;;;;;;;10411953;27;20079;-62
